Time;durP1;ratioP1;P1;durP2;ratioP2;P2;SDS_P1;SDS_P2;PMS_P1;PMS_P2;Temp;Humidity;BMP_temperature;BMP_pressure;BME280_temperature;BME280_humidity;BME280_pressure;Samples;Min_cycle;Max_cycle;Signal;HPM_P1;HPM_P2
2022/10/30 00:00:47;;;;;;;31.58;16.50;;;;;;;12.05;100.00;101440.84;2113597;28;37024;-74
2022/10/30 00:01:49;;;;;;;24.23;15.00;;;;;;;12.00;100.00;101440.94;2114861;27;20028;-74
2022/10/30 00:02:50;;;;;;;24.67;15.77;;;;;;;12.00;100.00;101440.94;2113923;27;32753;-75
2022/10/30 00:03:52;;;;;;;25.52;15.35;;;;;;;12.01;100.00;101442.72;2114430;27;37956;-75
2022/10/30 00:04:54;;;;;;;29.42;17.05;;;;;;;11.99;100.00;101438.31;2114663;28;20078;-74
2022/10/30 00:05:56;;;;;;;20.05;13.80;;;;;;;11.94;100.00;101437.53;2114571;28;32340;-74
2022/10/30 00:07:00;;;;;;;26.23;15.52;;;;;;;11.91;100.00;101445.63;2113860;28;20032;-75
2022/10/30 00:08:01;;;;;;;24.52;14.57;;;;;;;11.86;100.00;101448.34;2114082;28;30662;-74
2022/10/30 00:09:03;;;;;;;27.10;17.08;;;;;;;11.84;100.00;101445.72;2114116;28;35277;-75
2022/10/30 00:10:06;;;;;;;25.58;16.55;;;;;;;11.82;100.00;101444.84;2114459;28;27647;-75
2022/10/30 00:11:11;;;;;;;22.40;15.82;;;;;;;11.78;100.00;101443.16;2114015;27;40866;-74
2022/10/30 00:12:12;;;;;;;23.70;15.13;;;;;;;11.76;100.00;101434.25;2114693;28;30260;-75
2022/10/30 00:13:14;;;;;;;24.13;14.48;;;;;;;11.73;100.00;101437.00;2113967;28;36787;-75
2022/10/30 00:14:17;;;;;;;21.45;14.50;;;;;;;11.69;100.00;101435.28;2114547;27;29357;-75
2022/10/30 00:15:18;;;;;;;21.45;14.98;;;;;;;11.65;100.00;101430.91;2114604;27;20142;-74
2022/10/30 00:16:20;;;;;;;21.58;14.57;;;;;;;11.60;100.00;101440.84;2114624;27;32378;-74
2022/10/30 00:17:22;;;;;;;22.75;12.73;;;;;;;11.56;100.00;101439.13;2114576;28;28034;-74
2022/10/30 00:18:24;;;;;;;18.45;13.20;;;;;;;11.53;100.00;101440.06;2114593;27;31551;-75
2022/10/30 00:19:26;;;;;;;20.58;12.85;;;;;;;11.51;100.00;101441.00;2113566;27;39165;-75
2022/10/30 00:20:28;;;;;;;20.13;13.10;;;;;;;11.44;100.00;101435.75;2114691;27;27532;-75
2022/10/30 00:21:29;;;;;;;18.10;13.82;;;;;;;11.42;100.00;101442.94;2114499;27;20047;-74
2022/10/30 00:22:32;;;;;;;23.48;14.05;;;;;;;11.39;100.00;101444.78;2113483;27;37000;-75
2022/10/30 00:23:36;;;;;;;20.80;12.25;;;;;;;11.37;100.00;101436.78;2113211;28;39088;-75
2022/10/30 00:24:37;;;;;;;20.40;13.82;;;;;;;11.38;100.00;101440.38;2114308;27;36818;-75
2022/10/30 00:25:39;;;;;;;21.90;13.35;;;;;;;11.35;100.00;101435.91;2114025;28;30901;-75
2022/10/30 00:26:41;;;;;;;21.02;13.25;;;;;;;11.33;100.00;101431.50;2113640;28;34744;-74
2022/10/30 00:27:42;;;;;;;22.10;14.30;;;;;;;11.29;100.00;101438.72;2114055;28;20036;-74
2022/10/30 00:28:51;;;;;;;20.40;12.48;;;;;;;11.28;100.00;101439.63;2113643;28;28589;-74
2022/10/30 00:29:55;;;;;;;19.20;12.80;;;;;;;11.26;100.00;101428.06;2106262;28;29343;-74
2022/10/30 00:31:02;;;;;;;21.08;12.55;;;;;;;11.23;100.00;101430.78;2113826;28;32309;-75
2022/10/30 00:32:04;;;;;;;17.63;12.70;;;;;;;11.25;100.00;101429.84;2114346;27;20047;-74
2022/10/30 00:33:08;;;;;;;26.88;15.35;;;;;;;11.31;100.00;101428.84;2114198;27;27323;-75
2022/10/30 00:34:13;;;;;;;27.17;16.40;;;;;;;11.32;100.00;101427.94;2113592;28;32621;-75
2022/10/30 00:35:15;;;;;;;27.38;15.90;;;;;;;11.30;100.00;101428.88;2113626;28;32697;-75
2022/10/30 00:36:20;;;;;;;23.77;16.05;;;;;;;11.28;100.00;101423.53;2113715;28;32604;-75
2022/10/30 00:37:22;;;;;;;19.38;14.63;;;;;;;11.28;100.00;101423.53;2114188;28;20095;-75
2022/10/30 00:38:24;;;;;;;23.70;14.70;;;;;;;11.25;100.00;101424.50;2105596;28;20032;-75
2022/10/30 00:39:26;;;;;;;29.67;15.48;;;;;;;11.27;100.00;101421.78;2113825;28;31406;-74
2022/10/30 00:40:28;;;;;;;21.65;14.85;;;;;;;11.25;100.00;101423.59;2114730;28;20051;-74
2022/10/30 00:41:29;;;;;;;23.73;16.15;;;;;;;11.25;100.00;101420.91;2114670;27;20887;-74
2022/10/30 00:42:31;;;;;;;22.60;14.40;;;;;;;11.22;100.00;101426.34;2113558;28;25654;-75
2022/10/30 00:43:39;;;;;;;28.77;15.02;;;;;;;11.19;100.00;101418.34;2113890;28;24408;-75
2022/10/30 00:44:51;;;;;;;27.15;15.20;;;;;;;11.15;100.00;101420.19;2115042;27;20074;-75
2022/10/30 00:45:53;;;;;;;23.58;14.65;;;;;;;11.16;100.00;101419.31;2113890;28;20040;-75
2022/10/30 00:46:55;;;;;;;27.23;17.38;;;;;;;11.15;100.00;101416.66;2113483;27;25645;-75
2022/10/30 00:48:03;;;;;;;28.75;15.88;;;;;;;11.13;100.00;101421.16;2113357;27;23219;-74
2022/10/30 00:49:18;;;;;;;28.30;17.42;;;;;;;11.12;100.00;101419.38;2106325;28;23823;-75
2022/10/30 00:50:36;;;;;;;25.83;14.68;;;;;;;11.09;100.00;101423.00;2107543;28;35529;-75
2022/10/30 00:51:44;;;;;;;26.00;15.35;;;;;;;11.07;100.00;101423.03;2114357;28;20838;-74
2022/10/30 00:53:00;;;;;;;22.02;13.55;;;;;;;11.08;100.00;101415.84;2113412;28;25309;-75
2022/10/30 00:54:06;;;;;;;27.02;15.65;;;;;;;11.06;100.00;101423.94;2108750;28;20149;-74
2022/10/30 00:55:18;;;;;;;22.52;15.02;;;;;;;11.06;100.00;101423.06;2106324;28;33715;-75
2022/10/30 00:56:21;;;;;;;23.98;14.38;;;;;;;11.05;100.00;101415.91;2107389;28;26276;-75
2022/10/30 00:57:24;;;;;;;21.08;13.75;;;;;;;11.02;100.00;101419.53;2113709;28;28354;-75
2022/10/30 00:58:34;;;;;;;28.70;14.98;;;;;;;11.03;100.00;101420.41;2113694;28;34553;-75
2022/10/30 00:59:36;;;;;;;25.48;16.02;;;;;;;11.06;100.00;101415.88;2114813;27;20040;-75
2022/10/30 01:00:45;;;;;;;24.85;15.85;;;;;;;11.11;100.00;101410.47;2113359;27;26782;-75
2022/10/30 01:01:46;;;;;;;29.20;16.50;;;;;;;11.16;100.00;101415.72;2114106;27;29204;-75
2022/10/30 01:02:50;;;;;;;29.73;18.35;;;;;;;11.18;100.00;101419.25;2114263;28;20844;-75
2022/10/30 01:03:57;;;;;;;26.90;16.33;;;;;;;11.16;100.00;101408.59;2106147;28;20972;-75
2022/10/30 01:05:00;;;;;;;26.33;15.07;;;;;;;11.17;100.00;101414.81;2114294;27;20051;-75
2022/10/30 01:06:09;;;;;;;23.63;15.25;;;;;;;11.13;100.00;101407.75;2121939;27;20108;-75
2022/10/30 01:07:16;;;;;;;22.75;13.90;;;;;;;11.12;100.00;101416.69;2105195;28;20048;-75
2022/10/30 01:08:19;;;;;;;23.48;15.52;;;;;;;11.11;100.00;101428.31;2099691;28;26421;-75
2022/10/30 01:09:21;;;;;;;24.92;14.77;;;;;;;11.09;100.00;101420.31;2097520;28;20159;-75
2022/10/30 01:10:23;;;;;;;27.67;15.55;;;;;;;11.08;100.00;101426.59;2106321;28;20051;-75
2022/10/30 01:11:27;;;;;;;25.60;14.73;;;;;;;11.07;100.00;101419.44;2113725;28;20063;-75
2022/10/30 01:12:29;;;;;;;23.55;13.40;;;;;;;11.04;100.00;101422.19;2114129;28;20036;-76
2022/10/30 01:13:34;;;;;;;21.45;14.05;;;;;;;11.02;100.00;101416.84;2104946;28;20469;-76
2022/10/30 01:14:41;;;;;;;25.98;14.27;;;;;;;10.99;100.00;101419.56;2097908;28;20184;-75
2022/10/30 01:16:53;;;;;;;20.45;13.82;;;;;;;10.98;100.00;101417.81;2123608;27;20048;-75
2022/10/30 01:18:09;;;;;;;20.80;12.98;;;;;;;10.97;100.00;101423.22;2079630;28;20045;-75
2022/10/30 01:19:47;;;;;;;21.23;12.00;;;;;;;10.98;100.00;101423.19;2102040;28;20129;-75
2022/10/30 01:21:22;;;;;;;24.42;14.48;;;;;;;10.96;100.00;101422.31;2105364;28;20041;-75
2022/10/30 01:22:56;;;;;;;24.00;15.65;;;;;;;10.97;100.00;101421.41;2118353;27;25226;-75
2022/10/30 01:24:42;;;;;;;22.85;13.95;;;;;;;10.96;100.00;101424.09;2106068;28;31566;-75
2022/10/30 01:26:17;;;;;;;22.60;14.55;;;;;;;10.95;100.00;101425.03;2083259;28;20056;-75
2022/10/30 01:27:47;;;;;;;20.15;13.05;;;;;;;10.95;100.00;101431.28;2118864;27;20773;-75
2022/10/30 01:29:00;;;;;;;23.58;14.02;;;;;;;10.96;100.00;101424.97;2105675;28;24646;-75
2022/10/30 01:30:32;;;;;;;23.02;13.43;;;;;;;10.95;100.00;101435.75;2105340;28;20074;-75
2022/10/30 01:32:07;;;;;;;23.30;15.15;;;;;;;10.99;100.00;101430.28;2113959;27;20118;-75
2022/10/30 01:34:01;;;;;;;20.75;14.05;;;;;;;11.02;100.00;101424.91;2096897;28;20068;-75
2022/10/30 01:35:43;;;;;;;24.05;14.68;;;;;;;11.06;100.00;101423.06;2104237;28;20167;-75
2022/10/30 01:37:05;;;;;;;22.40;14.13;;;;;;;11.07;100.00;101433.75;2110221;28;20183;-75
2022/10/30 01:38:40;;;;;;;28.13;15.57;;;;;;;11.09;100.00;101431.03;2101960;28;20049;-75
2022/10/30 01:39:42;;;;;;;28.75;15.35;;;;;;;11.11;100.00;101429.22;2076247;28;20081;-75
2022/10/30 01:40:45;;;;;;;28.65;16.48;;;;;;;11.14;100.00;101433.63;2089711;28;20075;-75
2022/10/30 01:41:46;;;;;;;26.63;15.85;;;;;;;11.13;100.00;101431.88;2104724;28;20936;-76
2022/10/30 01:42:56;;;;;;;21.25;14.25;;;;;;;11.15;100.00;101432.72;2096580;28;20044;-76
2022/10/30 01:44:07;;;;;;;23.95;15.52;;;;;;;11.17;100.00;101434.47;2098190;28;20045;-75
2022/10/30 01:45:35;;;;;;;23.15;15.15;;;;;;;11.20;100.00;101433.53;2097972;28;20084;-76
2022/10/30 01:46:51;;;;;;;28.20;15.63;;;;;;;11.23;100.00;101436.13;2105822;28;20810;-76
2022/10/30 01:48:17;;;;;;;27.70;16.48;;;;;;;11.27;100.00;101440.56;2108681;28;20816;-76
2022/10/30 01:49:40;;;;;;;;;;;;;;;11.27;100.00;101432.50;2101129;28;20048;-76
2022/10/30 01:50:59;;;;;;;22.40;14.48;;;;;;;11.32;100.00;101424.38;2098914;28;20578;-76
2022/10/30 01:52:48;;;;;;;25.00;16.23;;;;;;;11.37;100.00;101425.19;2099597;28;20053;-75
2022/10/30 01:54:40;;;;;;;28.35;15.93;;;;;;;11.38;100.00;101427.84;2105675;28;24903;-76
2022/10/30 01:56:14;;;;;;;23.15;15.32;;;;;;;11.37;100.00;101426.06;2104696;28;20087;-76
2022/10/30 01:57:54;;;;;;;25.25;16.33;;;;;;;11.50;100.00;101426.69;2109081;28;20071;-77
2022/10/30 01:59:24;;;;;;;32.70;17.35;;;;;;;11.50;100.00;101429.38;2105237;28;23475;-76
2022/10/30 02:00:27;;;;;;;30.80;16.92;;;;;;;11.58;100.00;101431.94;2113178;28;20040;-76
2022/10/30 02:01:34;;;;;;;28.45;16.55;;;;;;;11.56;100.00;101431.09;2104040;28;20037;-76
2022/10/30 02:02:37;;;;;;;23.55;16.13;;;;;;;11.60;100.00;101424.75;2105593;28;20836;-76
2022/10/30 02:03:39;;;;;;;29.45;16.92;;;;;;;11.63;100.00;101422.00;2104070;28;20049;-76
2022/10/30 02:04:42;;;;;;;22.75;15.02;;;;;;;11.64;100.00;101421.09;2105735;28;20803;-75
2022/10/30 02:05:51;;;;;;;30.00;16.33;;;;;;;11.68;100.00;101419.22;2104321;28;20994;-76
2022/10/30 02:06:53;;;;;;;30.35;16.45;;;;;;;11.68;100.00;101414.72;2106268;28;20045;-76
2022/10/30 02:07:56;;;;;;;18.25;14.10;;;;;;;11.69;100.00;101419.19;2104144;28;20073;-76
2022/10/30 02:09:01;;;;;;;27.80;15.38;;;;;;;11.74;100.00;101420.00;2096956;28;20945;-77
2022/10/30 02:10:07;;;;;;;25.50;14.30;;;;;;;11.75;100.00;101412.81;2096744;28;20159;-77
2022/10/30 02:11:11;;;;;;;22.55;15.10;;;;;;;11.75;100.00;101413.69;2105031;28;20829;-76
2022/10/30 02:12:16;;;;;;;28.77;14.52;;;;;;;11.78;100.00;101418.13;2096635;28;20106;-76
2022/10/30 02:13:19;;;;;;;24.63;14.63;;;;;;;11.78;100.00;101419.00;2105158;28;20045;-76
2022/10/30 02:14:30;;;;;;;21.75;13.38;;;;;;;11.79;100.00;101417.19;2113159;28;26246;-77
2022/10/30 02:15:32;;;;;;;20.45;13.90;;;;;;;11.80;100.00;101419.84;2112482;28;20040;-76
2022/10/30 02:16:41;;;;;;;19.35;12.70;;;;;;;11.79;100.00;101414.50;2111816;27;20385;-76
2022/10/30 02:17:43;;;;;;;20.52;13.70;;;;;;;11.85;100.00;101415.28;2114601;27;20044;-76
2022/10/30 02:18:47;;;;;;;22.25;13.63;;;;;;;11.82;100.00;101418.03;2103411;28;20036;-77
2022/10/30 02:19:48;;;;;;;26.60;12.73;;;;;;;11.82;100.00;101426.06;2088262;28;28126;-77
2022/10/30 02:20:50;;;;;;;26.02;12.85;;;;;;;11.81;100.00;101421.63;2096307;28;20811;-77
2022/10/30 02:21:52;;;;;;;28.10;14.00;;;;;;;11.88;100.00;101427.78;2096445;28;20036;-77
2022/10/30 02:22:54;;;;;;;24.05;12.90;;;;;;;11.88;100.00;101427.78;2104779;28;20048;-76
2022/10/30 02:23:58;;;;;;;23.55;13.00;;;;;;;11.87;100.00;101425.13;2104965;28;20044;-77
2022/10/30 02:25:02;;;;;;;27.13;13.82;;;;;;;11.85;100.00;101420.66;2104130;28;25809;-77
2022/10/30 02:26:04;;;;;;;19.35;12.07;;;;;;;11.84;100.00;101418.91;2096482;28;25455;-77
2022/10/30 02:27:05;;;;;;;19.08;11.20;;;;;;;11.81;100.00;101424.31;2104974;28;20041;-77
2022/10/30 02:28:07;;;;;;;21.52;11.82;;;;;;;11.81;100.00;101423.44;2105202;28;25857;-76
2022/10/30 02:29:10;;;;;;;21.52;12.05;;;;;;;11.81;100.00;101428.81;2113083;28;20041;-77
2022/10/30 02:30:12;;;;;;;16.70;11.70;;;;;;;11.81;100.00;101426.13;2096142;28;20037;-77
2022/10/30 02:31:18;;;;;;;17.95;11.15;;;;;;;11.82;100.00;101428.75;2089055;28;20037;-77
2022/10/30 02:32:19;;;;;;;21.38;12.35;;;;;;;11.89;100.00;101428.66;2112782;28;21159;-76
2022/10/30 02:33:23;;;;;;;24.65;13.05;;;;;;;11.89;100.00;101425.97;2121335;27;26593;-77
2022/10/30 02:34:24;;;;;;;22.92;13.23;;;;;;;11.88;100.00;101427.78;2112754;28;20051;-77
2022/10/30 02:35:26;;;;;;;20.15;11.75;;;;;;;11.84;100.00;101428.72;2104902;28;25120;-77
2022/10/30 02:36:28;;;;;;;26.35;12.70;;;;;;;11.87;100.00;101428.66;2105576;28;20033;-77
2022/10/30 02:37:31;;;;;;;21.38;12.13;;;;;;;11.83;100.00;101432.34;2105188;28;25250;-77
2022/10/30 02:38:33;;;;;;;27.92;11.60;;;;;;;11.82;100.00;101426.06;2104794;28;20044;-77
2022/10/30 02:39:35;;;;;;;20.23;12.10;;;;;;;11.83;100.00;101427.84;2104796;28;20040;-77
2022/10/30 02:40:38;;;;;;;18.85;11.93;;;;;;;11.87;100.00;101425.13;2104543;28;20044;-77
2022/10/30 02:41:41;;;;;;;17.63;11.30;;;;;;;11.83;100.00;101433.22;2096795;28;20044;-77
2022/10/30 02:42:51;;;;;;;20.20;11.57;;;;;;;11.80;100.00;101430.59;2104438;28;20982;-78
2022/10/30 02:43:53;;;;;;;21.10;11.77;;;;;;;11.78;100.00;101419.00;2097490;28;20357;-77
2022/10/30 02:44:55;;;;;;;26.02;11.55;;;;;;;11.80;100.00;101427.03;2096715;28;20152;-77
2022/10/30 02:45:57;;;;;;;20.58;11.48;;;;;;;11.77;100.00;101430.66;2121105;27;36283;-78
2022/10/30 02:46:58;;;;;;;19.38;10.88;;;;;;;11.75;100.00;101429.78;2122047;27;20043;-77
2022/10/30 02:48:01;;;;;;;17.98;11.00;;;;;;;11.74;100.00;101428.03;2108600;27;20590;-77
2022/10/30 02:49:04;;;;;;;24.17;12.35;;;;;;;11.73;100.00;101431.63;2112836;28;20039;-77
2022/10/30 02:50:07;;;;;;;17.27;9.82;;;;;;;11.69;100.00;101435.28;2104495;28;20060;-77
2022/10/30 02:51:11;;;;;;;20.85;11.70;;;;;;;11.69;100.00;101435.28;2104859;28;20142;-77
2022/10/30 02:52:13;;;;;;;20.95;11.00;;;;;;;11.65;100.00;101423.75;2104691;28;20044;-77
2022/10/30 02:53:16;;;;;;;22.30;11.95;;;;;;;11.64;100.00;101421.94;2112844;27;20098;-77
2022/10/30 02:54:19;;;;;;;21.88;11.88;;;;;;;11.64;100.00;101429.13;2112812;28;20047;-77
2022/10/30 02:55:22;;;;;;;16.75;11.52;;;;;;;11.62;100.00;101430.97;2104624;28;20068;-77
2022/10/30 02:56:26;;;;;;;19.55;11.52;;;;;;;11.60;100.00;101432.78;2113069;27;20036;-77
2022/10/30 02:57:30;;;;;;;18.40;10.63;;;;;;;11.58;100.00;101427.44;2113091;28;20985;-77
2022/10/30 02:58:33;;;;;;;20.23;9.90;;;;;;;11.54;100.00;101436.47;2104070;28;33059;-77
2022/10/30 02:59:37;;;;;;;17.83;10.32;;;;;;;11.54;100.00;101430.22;2104379;28;20832;-78
2022/10/30 03:00:41;;;;;;;17.23;11.40;;;;;;;11.53;100.00;101431.13;2108480;27;20047;-77
2022/10/30 03:01:44;;;;;;;21.02;11.45;;;;;;;11.52;100.00;101434.72;2104948;28;21002;-77
2022/10/30 03:02:45;;;;;;;16.38;11.20;;;;;;;11.50;100.00;101431.19;2104420;28;20949;-77
2022/10/30 03:03:47;;;;;;;23.50;12.25;;;;;;;11.52;100.00;101443.69;2104565;28;21057;-78
2022/10/30 03:04:49;;;;;;;17.25;11.68;;;;;;;11.59;100.00;101431.00;2104115;28;27515;-77
2022/10/30 03:05:51;;;;;;;20.85;12.50;;;;;;;11.54;100.00;101436.47;2113158;28;20817;-77
2022/10/30 03:06:52;;;;;;;21.98;12.60;;;;;;;11.57;100.00;101433.72;2104898;28;20048;-77
2022/10/30 03:07:54;;;;;;;26.05;13.07;;;;;;;11.58;100.00;101440.88;2104730;28;20886;-77
2022/10/30 03:08:56;;;;;;;24.02;12.40;;;;;;;11.58;100.00;101437.31;2112912;28;27499;-77
2022/10/30 03:10:01;;;;;;;20.33;11.00;;;;;;;11.54;100.00;101431.13;2113621;27;24278;-77
2022/10/30 03:11:17;;;;;;;20.02;11.75;;;;;;;11.55;100.00;101437.34;2112933;28;20128;-77
2022/10/30 03:12:22;;;;;;;23.30;12.52;;;;;;;11.69;100.00;101434.41;2106543;28;20036;-77
2022/10/30 03:13:28;;;;;;;23.05;12.57;;;;;;;11.70;100.00;101439.75;2113290;27;20159;-77
2022/10/30 03:14:30;;;;;;;23.50;13.15;;;;;;;11.68;100.00;101443.38;2120612;27;20186;-77
2022/10/30 03:15:32;;;;;;;24.48;12.55;;;;;;;11.67;100.00;101437.13;2111318;28;26700;-76
2022/10/30 03:16:35;;;;;;;21.63;11.88;;;;;;;11.69;100.00;101446.03;2112337;28;32337;-77
2022/10/30 03:17:37;;;;;;;20.38;12.73;;;;;;;11.72;100.00;101448.66;2103656;28;20044;-77
2022/10/30 03:18:46;;;;;;;20.00;13.05;;;;;;;11.74;100.00;101444.13;2105753;28;20076;-77
2022/10/30 03:19:50;;;;;;;18.10;11.70;;;;;;;11.66;100.00;101448.75;2112911;28;20943;-77
2022/10/30 03:20:56;;;;;;;24.55;12.48;;;;;;;11.63;100.00;101449.72;2104311;28;20114;-77
2022/10/30 03:21:58;;;;;;;21.08;11.95;;;;;;;11.65;100.00;101450.56;2113541;28;20044;-77
2022/10/30 03:23:00;;;;;;;24.00;11.77;;;;;;;11.63;100.00;101447.03;2112450;28;26011;-77
2022/10/30 03:24:02;;;;;;;21.45;11.48;;;;;;;11.64;100.00;101447.91;2112663;28;28162;-77
2022/10/30 03:25:04;;;;;;;25.27;12.70;;;;;;;11.76;100.00;101453.03;2112951;28;20726;-77
2022/10/30 03:26:08;;;;;;;20.98;12.93;;;;;;;11.73;100.00;101445.03;2104434;28;20930;-77
2022/10/30 03:27:19;;;;;;;24.13;12.35;;;;;;;11.74;100.00;101452.19;2105608;28;20132;-78
2022/10/30 03:28:28;;;;;;;24.15;12.43;;;;;;;11.83;100.00;101446.63;2113577;28;20883;-78
2022/10/30 03:29:29;;;;;;;27.25;12.45;;;;;;;11.79;100.00;101446.72;2121242;27;20768;-77
2022/10/30 03:30:33;;;;;;;29.75;13.02;;;;;;;11.82;100.00;101446.66;2112782;28;20032;-77
2022/10/30 03:31:35;;;;;;;21.02;11.25;;;;;;;11.82;100.00;101446.66;2112912;28;27402;-77
2022/10/30 03:32:50;;;;;;;20.73;12.32;;;;;;;11.82;100.00;101455.56;2113347;27;20158;-77
2022/10/30 03:33:52;;;;;;;20.85;12.07;;;;;;;11.82;100.00;101446.66;2113290;28;27652;-77
2022/10/30 03:34:56;;;;;;;21.33;12.25;;;;;;;11.81;100.00;101442.22;2112992;28;20051;-77
2022/10/30 03:35:58;;;;;;;20.65;10.95;;;;;;;11.78;100.00;101453.00;2112203;28;30938;-77
2022/10/30 03:37:00;;;;;;;17.85;11.10;;;;;;;11.79;100.00;101442.25;2112923;28;20828;-77
2022/10/30 03:38:03;;;;;;;18.77;10.88;;;;;;;11.79;100.00;101446.72;2112780;27;20036;-77
2022/10/30 03:39:05;;;;;;;23.02;10.88;;;;;;;11.77;100.00;101445.84;2104532;28;20064;-77
2022/10/30 03:40:11;;;;;;;22.15;10.88;;;;;;;11.78;100.00;101439.59;2096879;28;20052;-77
2022/10/30 03:41:14;;;;;;;19.30;10.23;;;;;;;11.75;100.00;101447.69;2113688;27;20786;-78
2022/10/30 03:42:17;;;;;;;20.55;11.75;;;;;;;11.76;100.00;101436.06;2112487;28;20024;-77
2022/10/30 03:43:19;;;;;;;16.98;11.00;;;;;;;11.76;100.00;101436.06;2104454;28;20547;-78
2022/10/30 03:44:23;;;;;;;25.30;11.18;;;;;;;11.75;100.00;101435.16;2104636;28;20190;-77
2022/10/30 03:45:25;;;;;;;21.67;11.63;;;;;;;11.77;100.00;101436.03;2104641;28;20837;-77
2022/10/30 03:46:26;;;;;;;17.83;11.65;;;;;;;11.78;100.00;101434.22;2104347;28;20048;-77
2022/10/30 03:47:39;;;;;;;23.23;11.40;;;;;;;11.76;100.00;101441.44;2105543;27;20032;-78
2022/10/30 03:48:42;;;;;;;19.42;9.88;;;;;;;11.75;100.00;101440.53;2104720;28;20664;-78
2022/10/30 03:49:47;;;;;;;20.58;11.30;;;;;;;11.76;100.00;101436.06;2104678;28;20060;-77
2022/10/30 03:50:57;;;;;;;20.90;11.23;;;;;;;11.75;100.00;101442.31;2104917;28;20159;-77
2022/10/30 03:52:00;;;;;;;17.48;11.02;;;;;;;11.76;100.00;101436.94;2105966;28;20040;-76
2022/10/30 03:53:02;;;;;;;17.77;10.38;;;;;;;11.69;100.00;101435.28;2112325;27;28492;-77
2022/10/30 03:54:04;;;;;;;20.23;10.55;;;;;;;11.70;100.00;101439.75;2112773;28;20036;-77
2022/10/30 03:55:08;;;;;;;20.73;11.52;;;;;;;11.74;100.00;101438.78;2105144;28;20790;-78
2022/10/30 03:56:13;;;;;;;17.60;10.27;;;;;;;11.67;100.00;101433.56;2104898;28;20136;-77
2022/10/30 03:57:21;;;;;;;14.70;9.98;;;;;;;11.63;100.00;101438.09;2112628;28;20099;-78
2022/10/30 03:58:39;;;;;;;18.15;10.77;;;;;;;11.62;100.00;101433.63;2106589;28;20292;-78
2022/10/30 03:59:44;;;;;;;19.75;11.50;;;;;;;11.61;100.00;101429.19;2104817;28;20033;-77
2022/10/30 04:01:12;;;;;;;18.58;9.82;;;;;;;11.56;100.00;101433.78;2111022;28;21000;-77
2022/10/30 04:02:17;;;;;;;18.45;11.43;;;;;;;11.56;100.00;101433.78;2112751;28;20040;-77
2022/10/30 04:03:23;;;;;;;19.45;11.55;;;;;;;11.58;100.00;101440.88;2104928;28;20924;-77
2022/10/30 04:04:25;;;;;;;23.38;11.90;;;;;;;11.61;100.00;101437.22;2104234;28;20044;-77
2022/10/30 04:05:28;;;;;;;21.08;11.52;;;;;;;11.61;100.00;101432.75;2104016;28;20041;-77
2022/10/30 04:06:30;;;;;;;18.38;10.88;;;;;;;11.58;100.00;101431.94;2104656;28;20130;-77
2022/10/30 04:07:32;;;;;;;23.88;12.05;;;;;;;11.57;100.00;101432.84;2104271;28;20029;-77
2022/10/30 04:08:34;;;;;;;19.17;10.52;;;;;;;11.54;100.00;101433.78;2112631;28;20040;-77
2022/10/30 04:09:37;;;;;;;18.00;10.68;;;;;;;11.52;100.00;101432.94;2104254;28;20094;-78
2022/10/30 04:10:43;;;;;;;19.13;10.57;;;;;;;11.49;100.00;101427.63;2103998;28;27640;-77
2022/10/30 04:11:45;;;;;;;26.23;11.35;;;;;;;11.54;100.00;101439.16;2105103;28;20048;-77
2022/10/30 04:12:48;;;;;;;22.33;11.30;;;;;;;11.56;100.00;101431.09;2112615;28;20109;-77
2022/10/30 04:13:50;;;;;;;22.13;11.02;;;;;;;11.52;100.00;101437.41;2103995;28;20049;-76
2022/10/30 04:14:52;;;;;;;20.27;11.60;;;;;;;11.52;100.00;101442.75;2103943;28;26353;-78
2022/10/30 04:15:54;;;;;;;23.42;11.85;;;;;;;11.50;100.00;101432.06;2120610;27;34147;-77
2022/10/30 04:16:59;;;;;;;19.05;11.23;;;;;;;11.48;100.00;101435.69;2112802;27;20133;-78
2022/10/30 04:18:01;;;;;;;16.98;10.25;;;;;;;11.44;100.00;101437.56;2104049;28;20045;-78
2022/10/30 04:19:04;;;;;;;18.13;10.50;;;;;;;11.41;100.00;101443.88;2104294;28;20048;-77
2022/10/30 04:20:07;;;;;;;21.98;12.85;;;;;;;11.45;100.00;101436.66;2112451;28;20048;-78
2022/10/30 04:21:08;;;;;;;20.63;11.70;;;;;;;11.44;100.00;101440.25;2112409;28;20035;-77
2022/10/30 04:22:11;;;;;;;20.65;11.50;;;;;;;11.47;100.00;101440.19;2112744;27;20148;-77
2022/10/30 04:23:17;;;;;;;17.70;10.98;;;;;;;11.44;100.00;101440.25;2113287;28;20067;-78
2022/10/30 04:24:22;;;;;;;20.77;11.55;;;;;;;11.43;100.00;101438.44;2105197;28;32545;-78
2022/10/30 04:25:28;;;;;;;19.75;11.73;;;;;;;11.41;100.00;101446.56;2114643;27;20186;-78
2022/10/30 04:26:32;;;;;;;21.30;10.98;;;;;;;11.38;100.00;101435.00;2121665;27;20027;-77
2022/10/30 04:27:41;;;;;;;20.75;10.98;;;;;;;11.32;100.00;101441.34;2113902;28;20929;-77
2022/10/30 04:28:43;;;;;;;20.63;11.23;;;;;;;11.30;100.00;101439.59;2105977;28;20155;-78
2022/10/30 04:29:46;;;;;;;20.80;11.88;;;;;;;11.33;100.00;101432.38;2105434;28;20126;-77
2022/10/30 04:30:48;;;;;;;14.07;10.45;;;;;;;11.28;100.00;101429.78;2106406;28;20052;-78
2022/10/30 04:31:51;;;;;;;15.43;10.07;;;;;;;11.23;100.00;101430.78;2105328;28;20355;-77
2022/10/30 04:32:55;;;;;;;17.48;10.27;;;;;;;11.19;100.00;101434.44;2097268;28;20065;-77
2022/10/30 04:33:57;;;;;;;18.92;10.55;;;;;;;11.15;100.00;101432.72;2114073;27;20074;-77
2022/10/30 04:35:03;;;;;;;20.27;10.45;;;;;;;11.12;100.00;101438.13;2122314;27;20113;-77
2022/10/30 04:36:05;;;;;;;19.15;11.00;;;;;;;11.14;100.00;101428.25;2105379;28;20861;-77
2022/10/30 04:37:09;;;;;;;22.45;10.90;;;;;;;11.08;100.00;101430.13;2105759;28;23043;-77
2022/10/30 04:38:14;;;;;;;23.45;11.90;;;;;;;11.10;100.00;101431.91;2105817;28;26444;-78
2022/10/30 04:39:17;;;;;;;20.73;12.23;;;;;;;11.08;100.00;101435.50;2096884;28;20049;-78
2022/10/30 04:40:20;;;;;;;18.00;12.13;;;;;;;11.11;100.00;101436.34;2098089;28;20044;-78
2022/10/30 04:41:28;;;;;;;22.60;12.43;;;;;;;11.07;100.00;101436.44;2106874;28;20087;-77
2022/10/30 04:42:36;;;;;;;19.38;11.07;;;;;;;11.04;100.00;101430.22;2104343;28;20182;-77
2022/10/30 04:43:38;;;;;;;24.75;12.38;;;;;;;11.06;100.00;101437.31;2105418;28;20134;-78
2022/10/30 04:44:39;;;;;;;22.55;11.57;;;;;;;11.06;100.00;101433.75;2105650;28;20837;-77
2022/10/30 04:45:42;;;;;;;19.33;11.27;;;;;;;11.01;100.00;101431.16;2106011;28;20055;-77
2022/10/30 04:46:45;;;;;;;18.63;12.23;;;;;;;11.04;100.00;101436.47;2113746;28;20159;-77
2022/10/30 04:47:47;;;;;;;17.75;12.07;;;;;;;11.04;100.00;101436.47;2113518;27;20044;-77
2022/10/30 04:48:51;;;;;;;21.30;12.45;;;;;;;11.06;100.00;101436.44;2105314;28;20102;-77
2022/10/30 04:49:53;;;;;;;28.00;11.75;;;;;;;11.00;100.00;101434.75;2097566;28;20041;-78
2022/10/30 04:50:58;;;;;;;19.08;11.15;;;;;;;11.00;100.00;101429.41;2105637;28;21036;-78
2022/10/30 04:52:02;;;;;;;24.02;11.80;;;;;;;10.99;100.00;101437.47;2113527;28;20102;-78
2022/10/30 04:53:08;;;;;;;19.75;11.45;;;;;;;10.98;100.00;101427.63;2106412;28;20048;-77
2022/10/30 04:54:10;;;;;;;19.60;10.48;;;;;;;10.94;100.00;101429.47;2113431;28;20686;-77
2022/10/30 04:55:12;;;;;;;17.13;10.40;;;;;;;10.94;100.00;101429.47;2105245;28;21029;-77
2022/10/30 04:56:16;;;;;;;20.58;12.45;;;;;;;11.00;100.00;101436.53;2097609;28;20037;-77
2022/10/30 04:57:18;;;;;;;19.65;11.15;;;;;;;10.95;100.00;101436.63;2105348;28;23802;-78
2022/10/30 04:58:19;;;;;;;19.10;12.25;;;;;;;10.93;100.00;101438.44;2114114;28;21049;-78
2022/10/30 04:59:27;;;;;;;19.88;10.60;;;;;;;10.89;100.00;101437.63;2112621;28;20481;-77
2022/10/30 05:00:30;;;;;;;17.88;11.20;;;;;;;10.86;100.00;101436.78;2105598;28;20175;-77